Time;durP1;ratioP1;P1;durP2;ratioP2;P2;SDS_P1;SDS_P2;PMS_P1;PMS_P2;Temp;Humidity;BMP_temperature;BMP_pressure;BME280_temperature;BME280_humidity;BME280_pressure;Samples;Min_cycle;Max_cycle;Signal;HPM_P1;HPM_P2
2020/12/04 00:01:01;;;;;;;10.90;5.38;;;26.50;59.90;;;;;;5131588;28;20043;-57
2020/12/04 00:03:29;;;;;;;5.65;4.43;;;26.40;64.00;;;;;;5132409;28;20083;-53
2020/12/04 00:05:56;;;;;;;13.05;4.45;;;26.50;64.00;;;;;;5131768;28;20035;-56
2020/12/04 00:08:23;;;;;;;9.00;4.50;;;26.60;60.00;;;;;;5131704;28;20023;-57
2020/12/04 00:10:51;;;;;;;6.75;4.47;;;26.50;64.00;;;;;;5132552;28;20379;-56
2020/12/04 00:13:18;;;;;;;10.00;4.65;;;26.60;65.40;;;;;;5132196;28;20023;-58
2020/12/04 00:15:45;;;;;;;7.93;4.22;;;26.70;60.30;;;;;;5132077;28;20087;-56
2020/12/04 00:18:13;;;;;;;7.97;3.85;;;26.80;60.50;;;;;;5110162;28;20111;-58
2020/12/04 00:20:40;;;;;;;4.80;4.03;;;26.90;60.40;;;;;;5111051;28;20046;-57
2020/12/04 00:23:07;;;;;;;9.38;4.05;;;26.80;65.00;;;;;;5111341;28;20045;-57
2020/12/04 00:25:35;;;;;;;5.45;4.13;;;26.90;62.90;;;;;;5113708;28;20016;-58
2020/12/04 00:28:02;;;;;;;8.45;4.57;;;27.00;63.20;;;;;;5116096;28;20523;-54
2020/12/04 00:30:30;;;;;;;7.85;3.70;;;27.10;62.50;;;;;;5115661;28;20032;-57
2020/12/04 00:32:57;;;;;;;5.90;3.83;;;27.20;58.50;;;;;;5115391;28;20073;-54
2020/12/04 00:35:24;;;;;;;6.88;3.88;;;27.20;59.30;;;;;;5114637;28;20020;-57
2020/12/04 00:37:52;;;;;;;6.78;4.07;;;27.20;60.00;;;;;;5114841;28;20477;-58
2020/12/04 00:40:19;;;;;;;8.68;3.97;;;27.20;59.30;;;;;;5114981;28;20353;-58
2020/12/04 00:42:47;;;;;;;4.65;3.45;;;27.30;59.70;;;;;;5115264;28;20027;-58
2020/12/04 00:45:15;;;;;;;6.35;4.10;;;27.30;61.60;;;;;;5114567;28;20027;-60
2020/12/04 00:47:43;;;;;;;9.05;3.95;;;27.40;61.30;;;;;;5114841;28;20024;-59
2020/12/04 00:50:11;;;;;;;8.43;3.47;;;27.50;62.30;;;;;;5114773;27;20456;-54
2020/12/04 00:52:38;;;;;;;9.32;3.78;;;27.40;58.50;;;;;;5114707;28;20123;-57
2020/12/04 00:55:05;;;;;;;5.80;3.67;;;27.50;61.50;;;;;;5115176;28;20035;-60
2020/12/04 00:57:33;;;;;;;4.38;3.53;;;27.50;61.00;;;;;;5115267;28;20015;-56
2020/12/04 01:00:00;;;;;;;5.65;3.90;;;27.50;62.10;;;;;;5114931;28;20031;-55
2020/12/04 01:02:27;;;;;;;5.72;3.83;;;27.50;62.50;;;;;;5114558;28;20413;-56
2020/12/04 01:04:55;;;;;;;5.38;3.58;;;27.60;59.80;;;;;;5114276;28;20193;-58
2020/12/04 01:07:22;;;;;;;6.95;3.20;;;27.70;56.80;;;;;;5114437;28;20465;-59
2020/12/04 01:09:49;;;;;;;4.20;3.25;;;27.80;58.50;;;;;;5114655;28;20020;-57
2020/12/04 01:12:16;;;;;;;3.92;3.38;;;27.80;58.60;;;;;;5114526;28;20460;-53
2020/12/04 01:14:44;;;;;;;4.72;3.38;;;27.80;57.10;;;;;;5114563;27;20077;-58
2020/12/04 01:17:11;;;;;;;7.32;3.30;;;27.80;59.90;;;;;;5114320;27;20125;-52
2020/12/04 01:19:38;;;;;;;6.70;3.28;;;27.80;60.30;;;;;;5133728;27;20019;-55
2020/12/04 01:22:06;;;;;;;5.20;3.28;;;27.90;57.40;;;;;;5133439;27;20038;-56
2020/12/04 01:24:33;;;;;;;8.73;3.08;;;27.90;59.30;;;;;;5134972;27;20488;-59
2020/12/04 01:27:00;;;;;;;8.20;3.50;;;27.90;57.60;;;;;;5134798;27;20075;-58
2020/12/04 01:29:28;;;;;;;4.57;3.00;;;28.00;55.70;;;;;;5135131;27;20123;-60
2020/12/04 01:31:55;;;;;;;9.27;3.30;;;28.10;57.60;;;;;;5134762;27;20088;-55
2020/12/04 01:34:22;;;;;;;6.10;3.05;;;28.20;53.80;;;;;;5134514;27;20424;-58
2020/12/04 01:36:50;;;;;;;6.10;3.20;;;28.20;53.70;;;;;;5133314;27;20385;-55
2020/12/04 01:39:18;;;;;;;6.13;3.60;;;28.20;59.20;;;;;;5134405;27;20023;-54
2020/12/04 01:41:45;;;;;;;5.32;3.25;;;28.30;54.80;;;;;;5134108;27;20076;-63
2020/12/04 01:44:13;;;;;;;6.57;2.95;;;28.40;57.20;;;;;;5134218;27;20072;-57
2020/12/04 01:46:40;;;;;;;3.78;3.03;;;28.40;57.30;;;;;;5134579;27;20034;-55
2020/12/04 01:49:08;;;;;;;4.80;3.30;;;28.40;58.50;;;;;;5134151;27;20019;-55
2020/12/04 01:51:35;;;;;;;6.43;3.70;;;28.50;58.60;;;;;;5134298;27;20016;-60
2020/12/04 01:54:03;;;;;;;3.90;3.28;;;28.40;54.20;;;;;;5134114;27;20023;-58
2020/12/04 01:56:38;;;;;;;4.63;2.45;;;28.50;54.40;;;;;;5134578;27;20046;-56
2020/12/04 01:59:08;;;;;;;4.70;2.88;;;28.70;53.50;;;;;;5133674;27;20045;-58
2020/12/04 02:01:40;;;;;;;5.05;3.45;;;28.60;55.50;;;;;;5134058;27;20045;-57
2020/12/04 02:04:08;;;;;;;;;;;28.70;53.90;;;;;;5134374;27;20083;-57
2020/12/04 02:06:41;;;;;;;5.20;2.97;;;28.70;57.30;;;;;;5134357;27;19910;-56
2020/12/04 02:09:17;;;;;;;4.35;2.35;;;28.80;53.60;;;;;;5133631;27;20411;-61
2020/12/04 02:11:46;;;;;;;5.97;2.47;;;28.80;54.80;;;;;;5133972;27;20455;-59
2020/12/04 02:14:15;;;;;;;8.93;2.97;;;28.70;57.50;;;;;;5134161;27;20101;-63
2020/12/04 02:16:43;;;;;;;4.72;3.10;;;28.70;56.90;;;;;;5133938;27;20018;-58
2020/12/04 02:19:11;;;;;;;8.98;4.28;;;28.70;56.90;;;;;;5133364;27;20190;-58
2020/12/04 02:21:40;;;;;;;5.50;3.13;;;28.70;57.00;;;;;;5133581;27;20157;-59
2020/12/04 02:24:07;;;;;;;5.47;2.60;;;28.70;56.40;;;;;;5133825;27;20023;-57
2020/12/04 02:26:36;;;;;;;4.93;2.78;;;28.70;57.60;;;;;;5133646;27;20079;-57
2020/12/04 02:29:04;;;;;;;9.90;3.45;;;28.60;58.00;;;;;;5132411;27;20026;-60
2020/12/04 02:31:31;;;;;;;5.05;2.72;;;28.40;58.00;;;;;;5133074;27;20137;-61
2020/12/04 02:33:59;;;;;;;4.18;2.20;;;28.40;58.60;;;;;;5133402;27;20047;-58
2020/12/04 02:36:26;;;;;;;12.52;3.85;;;28.40;58.50;;;;;;5133625;27;20035;-61
2020/12/04 02:38:53;;;;;;;9.60;3.80;;;28.50;58.60;;;;;;5133240;27;20205;-58
2020/12/04 02:41:21;;;;;;;5.38;3.40;;;28.50;58.60;;;;;;5114794;27;20050;-58
2020/12/04 02:43:48;;;;;;;6.72;3.42;;;28.50;58.60;;;;;;5133842;27;20020;-63
2020/12/04 02:46:15;;;;;;;8.43;3.85;;;28.40;58.90;;;;;;5114972;27;20057;-62
2020/12/04 02:48:43;;;;;;;9.43;3.42;;;28.30;58.90;;;;;;5132696;27;20401;-62
2020/12/04 02:51:10;;;;;;;7.53;3.70;;;28.40;59.30;;;;;;5133150;27;20106;-60
2020/12/04 02:53:37;;;;;;;4.97;2.83;;;28.40;59.20;;;;;;5133430;27;20060;-60
2020/12/04 02:56:05;;;;;;;3.63;2.60;;;28.20;59.50;;;;;;5133554;27;20162;-60
2020/12/04 02:58:32;;;;;;;5.50;3.13;;;28.00;60.00;;;;;;5133736;27;20411;-57
2020/12/04 03:01:00;;;;;;;8.30;3.35;;;28.00;59.60;;;;;;5114340;27;20031;-58
2020/12/04 03:03:27;;;;;;;7.75;3.47;;;28.20;59.80;;;;;;5133203;27;20016;-61
2020/12/04 03:05:55;;;;;;;4.00;2.88;;;28.10;59.80;;;;;;5133055;27;20385;-59
2020/12/04 03:08:25;;;;;;;4.68;2.90;;;28.00;60.10;;;;;;5132517;27;20035;-59
2020/12/04 03:10:53;;;;;;;10.38;3.85;;;27.90;60.50;;;;;;5132712;27;20077;-61
2020/12/04 03:13:21;;;;;;;9.45;3.47;;;28.10;59.10;;;;;;5132869;27;20026;-57
2020/12/04 03:15:49;;;;;;;15.20;4.57;;;28.20;59.10;;;;;;5132502;27;20027;-54
2020/12/04 03:18:16;;;;;;;23.38;5.00;;;28.20;59.00;;;;;;5131584;27;20091;-53
2020/12/04 03:20:44;;;;;;;6.78;3.17;;;28.30;59.10;;;;;;5131913;27;20095;-57
2020/12/04 03:23:11;;;;;;;4.70;2.92;;;28.30;59.20;;;;;;5113936;27;20023;-58
2020/12/04 03:25:38;;;;;;;4.57;2.90;;;28.30;59.90;;;;;;5131805;27;20027;-55
2020/12/04 03:28:06;;;;;;;5.35;3.10;;;28.20;60.20;;;;;;5132564;27;20027;-59
2020/12/04 03:30:33;;;;;;;4.70;3.03;;;28.20;60.50;;;;;;5132878;27;20479;-61
2020/12/04 03:33:00;;;;;;;8.38;3.00;;;28.00;60.90;;;;;;5132202;27;20057;-56
2020/12/04 03:35:28;;;;;;;4.82;3.10;;;28.00;61.00;;;;;;5132491;27;20112;-60
2020/12/04 03:37:55;;;;;;;6.07;4.35;;;28.00;61.60;;;;;;5132450;27;20527;-53
2020/12/04 03:40:22;;;;;;;7.43;3.70;;;28.20;60.30;;;;;;5131923;27;20177;-59
2020/12/04 03:42:50;;;;;;;6.50;3.22;;;28.20;60.10;;;;;;5131562;27;20098;-56
2020/12/04 03:45:17;;;;;;;5.63;2.78;;;28.30;60.40;;;;;;5132244;27;20019;-56
2020/12/04 03:47:44;;;;;;;6.38;3.83;;;28.10;60.50;;;;;;5132318;27;20389;-62
2020/12/04 03:50:12;;;;;;;12.07;4.40;;;28.10;60.40;;;;;;5131915;27;20042;-63
2020/12/04 03:52:39;;;;;;;6.10;2.92;;;28.10;60.50;;;;;;5131918;27;20465;-60
2020/12/04 03:55:07;;;;;;;7.32;3.92;;;28.20;61.20;;;;;;5113551;28;20034;-64
2020/12/04 03:57:34;;;;;;;10.88;4.30;;;28.00;60.20;;;;;;5113672;28;20027;-60
2020/12/04 04:00:01;;;;;;;13.80;4.10;;;28.20;60.60;;;;;;5132753;27;20126;-60
2020/12/04 04:02:29;;;;;;;7.57;3.60;;;28.20;60.50;;;;;;5136426;27;20122;-57
2020/12/04 04:04:56;;;;;;;4.85;3.22;;;28.10;59.70;;;;;;5136288;27;20023;-61
2020/12/04 04:07:23;;;;;;;6.18;3.53;;;28.00;61.50;;;;;;5136173;27;20143;-59
2020/12/04 04:09:51;;;;;;;5.13;3.10;;;28.00;59.30;;;;;;5118507;27;20049;-61
2020/12/04 04:12:18;;;;;;;6.30;3.53;;;28.10;60.40;;;;;;5136650;27;20028;-63
2020/12/04 04:14:46;;;;;;;3.75;2.90;;;28.10;61.30;;;;;;5136305;27;20324;-58
2020/12/04 04:17:13;;;;;;;4.88;2.97;;;27.90;62.10;;;;;;5115670;27;20062;-57
2020/12/04 04:19:40;;;;;;;5.97;3.45;;;27.90;62.00;;;;;;5114495;28;20346;-61
2020/12/04 04:22:07;;;;;;;5.97;3.45;;;27.90;61.50;;;;;;5114395;28;20051;-60
2020/12/04 04:24:35;;;;;;;4.85;2.95;;;28.00;61.80;;;;;;5115939;28;20470;-60
2020/12/04 04:27:02;;;;;;;4.68;3.17;;;28.00;61.70;;;;;;5115826;28;20043;-56
2020/12/04 04:29:30;;;;;;;5.55;3.67;;;28.00;60.90;;;;;;5115743;28;20020;-59
2020/12/04 04:31:57;;;;;;;4.20;3.03;;;28.10;60.70;;;;;;5115526;28;20016;-59
2020/12/04 04:34:24;;;;;;;5.65;3.08;;;28.10;62.10;;;;;;5097300;28;20039;-62
2020/12/04 04:36:52;;;;;;;4.25;2.90;;;28.00;61.10;;;;;;5114779;28;20065;-59
2020/12/04 04:39:19;;;;;;;6.15;3.00;;;28.20;60.10;;;;;;5115271;28;20067;-59
2020/12/04 04:41:53;;;;;;;5.57;2.97;;;28.10;58.90;;;;;;5115036;28;20093;-60
2020/12/04 04:44:22;;;;;;;4.03;2.67;;;28.10;60.90;;;;;;5115154;28;20451;-62
2020/12/04 04:47:19;;;;;;;6.13;2.88;;;28.20;61.80;;;;;;5115249;28;20085;-59
2020/12/04 04:49:53;;;;;;;4.40;2.75;;;28.00;62.50;;;;;;5084164;28;20028;-60
2020/12/04 04:52:21;;;;;;;6.32;3.13;;;28.00;61.20;;;;;;5114166;28;20097;-59
2020/12/04 04:54:50;;;;;;;6.45;3.03;;;27.90;62.60;;;;;;5113302;28;20037;-56
2020/12/04 04:57:22;;;;;;;5.57;3.08;;;28.00;59.20;;;;;;5112918;28;20020;-62
2020/12/04 04:59:50;;;;;;;3.80;3.00;;;28.00;62.50;;;;;;5113327;28;20030;-54
2020/12/04 05:02:17;;;;;;;6.55;3.03;;;27.90;62.90;;;;;;5113360;28;20568;-54
2020/12/04 05:04:56;;;;;;;4.10;2.88;;;28.00;61.10;;;;;;5113184;28;20085;-61
2020/12/04 05:07:34;;;;;;;9.32;3.03;;;28.10;62.40;;;;;;5112530;28;20398;-60
2020/12/04 05:10:11;;;;;;;6.32;2.72;;;28.00;58.30;;;;;;5114130;28;20492;-58
2020/12/04 05:12:39;;;;;;;5.05;3.25;;;28.20;57.90;;;;;;5114934;28;20119;-57
2020/12/04 05:15:27;;;;;;;5.25;2.85;;;28.20;61.80;;;;;;5096655;28;20077;-59
2020/12/04 05:18:09;;;;;;;5.55;2.60;;;28.00;59.50;;;;;;5114593;28;20044;-61
2020/12/04 05:20:38;;;;;;;3.58;2.55;;;28.00;62.60;;;;;;5096528;28;20050;-59
2020/12/04 05:23:08;;;;;;;4.47;3.08;;;28.00;61.30;;;;;;5115054;28;20162;-59
2020/12/04 05:25:52;;;;;;;5.40;2.85;;;28.00;63.00;;;;;;5114535;28;20051;-63
2020/12/04 05:28:27;;;;;;;7.35;3.03;;;28.00;62.50;;;;;;5096398;28;20030;-60
2020/12/04 05:31:11;;;;;;;4.40;2.83;;;28.00;59.90;;;;;;5114578;28;20062;-54
2020/12/04 05:33:41;;;;;;;4.72;3.13;;;28.00;62.20;;;;;;5114410;28;20024;-56
2020/12/04 05:36:08;;;;;;;5.22;2.72;;;28.00;59.30;;;;;;5114572;28;20024;-55
2020/12/04 05:38:36;;;;;;;7.50;3.53;;;27.90;58.30;;;;;;5114537;28;20019;-58
2020/12/04 05:41:07;;;;;;;7.35;3.55;;;27.90;61.10;;;;;;5113863;28;20122;-55
2020/12/04 05:43:41;;;;;;;5.10;3.67;;;27.90;60.30;;;;;;5113977;28;20026;-58
2020/12/04 05:46:27;;;;;;;3.88;2.53;;;27.80;61.80;;;;;;5113689;28;20041;-61
2020/12/04 05:49:04;;;;;;;5.63;3.00;;;27.80;62.60;;;;;;5113867;28;20031;-61
2020/12/04 05:51:33;;;;;;;4.30;3.13;;;27.80;61.90;;;;;;5113940;28;20476;-62
2020/12/04 05:54:02;;;;;;;6.18;2.95;;;27.80;63.20;;;;;;5113710;28;20023;-61
2020/12/04 05:56:32;;;;;;;6.10;2.83;;;27.70;62.50;;;;;;5113913;28;20020;-60
2020/12/04 05:59:03;;;;;;;8.25;3.25;;;27.60;63.40;;;;;;5113588;28;20046;-59
2020/12/04 06:01:30;;;;;;;6.25;3.25;;;27.70;61.60;;;;;;5113875;28;20057;-58
2020/12/04 06:03:58;;;;;;;7.00;3.10;;;27.70;60.50;;;;;;5113682;28;20072;-55
2020/12/04 06:06:29;;;;;;;5.43;2.95;;;27.50;63.40;;;;;;5113767;28;20034;-57
2020/12/04 06:09:06;;;;;;;3.95;2.53;;;27.50;64.00;;;;;;5113741;28;20084;-56
2020/12/04 06:11:37;;;;;;;6.45;2.90;;;27.40;64.40;;;;;;5095462;28;20089;-53
2020/12/04 06:14:26;;;;;;;5.25;2.90;;;27.40;61.90;;;;;;5113737;28;20062;-58
2020/12/04 06:17:12;;;;;;;4.47;2.60;;;27.40;64.10;;;;;;5113252;28;20027;-58
2020/12/04 06:19:41;;;;;;;10.30;4.47;;;27.30;62.10;;;;;;5113936;28;20471;-58
2020/12/04 06:22:09;;;;;;;4.20;2.78;;;27.30;63.20;;;;;;5113479;28;20034;-57
2020/12/04 06:24:57;;;;;;;7.32;3.35;;;27.30;63.20;;;;;;5113725;28;20051;-61
2020/12/04 06:27:45;;;;;;;16.33;3.42;;;27.20;63.70;;;;;;5102631;28;20093;-58
2020/12/04 06:30:17;;;;;;;6.47;3.53;;;27.30;62.70;;;;;;5113278;28;20030;-56
2020/12/04 06:32:48;;;;;;;5.25;3.20;;;27.30;63.10;;;;;;5113043;28;20043;-56
2020/12/04 06:35:40;;;;;;;4.47;1.95;;;27.20;63.10;;;;;;5094298;28;20616;-58
2020/12/04 06:38:07;;;;;;;6.13;3.03;;;27.10;64.80;;;;;;5112675;28;20555;-56
2020/12/04 06:40:34;;;;;;;7.00;2.72;;;27.10;62.40;;;;;;5112816;28;20038;-57
2020/12/04 06:43:24;;;;;;;6.63;4.18;;;27.10;62.60;;;;;;5112498;28;20042;-56
2020/12/04 06:45:52;;;;;;;4.20;2.50;;;27.10;63.30;;;;;;5112694;28;20096;-57
2020/12/04 06:48:20;;;;;;;10.95;3.08;;;27.00;63.30;;;;;;5094622;28;20028;-57
2020/12/04 06:50:50;;;;;;;6.97;3.08;;;27.00;61.10;;;;;;5094523;28;20027;-57
2020/12/04 06:53:17;;;;;;;5.78;2.80;;;27.00;61.80;;;;;;5112791;28;20019;-60
2020/12/04 06:55:50;;;;;;;6.72;2.95;;;27.00;63.10;;;;;;5112574;28;20020;-62
2020/12/04 06:58:17;;;;;;;4.80;2.75;;;26.90;65.60;;;;;;5113016;28;20385;-56
2020/12/04 07:00:45;;;;;;;8.43;2.70;;;26.90;65.60;;;;;;5112228;28;20039;-59
2020/12/04 07:03:17;;;;;;;5.80;3.00;;;26.80;65.90;;;;;;5094013;28;20095;-57
2020/12/04 07:05:43;;;;;;;;;;;26.80;60.30;;;;;;5112975;28;20024;-56
2020/12/04 07:08:11;;;;;;;10.30;3.97;;;26.80;63.70;;;;;;5112121;28;19903;-60
2020/12/04 07:10:39;;;;;;;10.05;2.75;;;26.80;59.70;;;;;;5112527;28;20043;-59
2020/12/04 07:13:07;;;;;;;7.90;3.13;;;26.80;59.40;;;;;;5112111;28;20047;-52
2020/12/04 07:15:34;;;;;;;5.43;2.65;;;26.70;59.20;;;;;;5112275;28;20023;-59
2020/12/04 07:18:01;;;;;;;7.63;3.38;;;26.70;65.50;;;;;;5112631;28;20054;-59
2020/12/04 07:20:38;;;;;;;7.03;2.80;;;26.60;61.10;;;;;;5111861;28;20024;-61
2020/12/04 07:23:09;;;;;;;6.05;3.10;;;26.70;61.50;;;;;;5112062;28;20028;-59
2020/12/04 07:25:37;;;;;;;4.80;2.67;;;26.60;62.20;;;;;;5112439;28;20023;-58
2020/12/04 07:28:05;;;;;;;4.78;2.50;;;26.60;61.50;;;;;;5112260;28;20028;-58
2020/12/04 07:30:32;;;;;;;5.28;2.63;;;26.60;64.80;;;;;;5112562;28;20104;-56
2020/12/04 07:32:59;;;;;;;6.60;2.90;;;26.50;64.20;;;;;;5112507;28;20065;-58
2020/12/04 07:35:27;;;;;;;4.05;2.75;;;26.50;60.10;;;;;;5112281;28;20371;-58
2020/12/04 07:37:54;;;;;;;6.03;2.78;;;26.50;61.90;;;;;;5112797;28;20404;-63
2020/12/04 07:40:22;;;;;;;6.18;2.90;;;26.50;61.80;;;;;;5112307;28;20042;-57
2020/12/04 07:42:50;;;;;;;4.75;2.72;;;26.50;64.50;;;;;;5112207;28;20027;-63
2020/12/04 07:45:18;;;;;;;5.95;2.83;;;26.40;63.50;;;;;;5111795;28;20032;-55
2020/12/04 07:47:45;;;;;;;7.07;3.38;;;26.40;65.40;;;;;;5111975;28;20062;-63
2020/12/04 07:50:15;;;;;;;5.50;2.50;;;26.40;62.10;;;;;;5111929;28;20327;-59
2020/12/04 07:52:52;;;;;;;5.47;2.95;;;26.30;62.90;;;;;;5093771;28;20100;-61
2020/12/04 07:55:22;;;;;;;5.15;2.40;;;26.30;59.70;;;;;;5111989;28;20020;-54
2020/12/04 07:58:08;;;;;;;5.32;3.00;;;26.30;64.60;;;;;;5111853;28;20048;-59
2020/12/04 08:00:36;;;;;;;4.13;2.10;;;26.30;58.60;;;;;;5111492;28;20099;-60
2020/12/04 08:03:14;;;;;;;9.13;3.50;;;26.20;65.40;;;;;;5111833;28;20023;-55
2020/12/04 08:05:42;;;;;;;5.80;2.88;;;26.20;61.90;;;;;;5111783;28;20024;-60
2020/12/04 08:08:10;;;;;;;5.38;2.58;;;26.20;63.30;;;;;;5111956;28;20025;-57
2020/12/04 08:10:37;;;;;;;4.70;2.25;;;26.20;63.20;;;;;;5112158;28;20028;-61
2020/12/04 08:13:05;;;;;;;6.38;3.20;;;26.20;66.20;;;;;;5111601;28;20016;-61
2020/12/04 08:15:32;;;;;;;4.75;2.95;;;26.10;63.80;;;;;;5111589;28;20438;-57
2020/12/04 08:18:05;;;;;;;5.53;2.70;;;26.10;62.20;;;;;;5111655;28;20174;-58
2020/12/04 08:20:33;;;;;;;5.72;2.60;;;26.10;62.20;;;;;;5112029;28;20056;-58
2020/12/04 08:23:00;;;;;;;7.57;3.00;;;26.10;61.80;;;;;;5111900;28;20077;-54
2020/12/04 08:25:30;;;;;;;5.90;2.80;;;26.10;59.30;;;;;;5112038;28;20386;-65
2020/12/04 08:27:58;;;;;;;10.90;3.80;;;26.10;59.30;;;;;;5111786;28;20051;-62
2020/12/04 08:30:27;;;;;;;7.53;2.97;;;26.10;60.70;;;;;;5111578;28;20046;-60
2020/12/04 08:32:57;;;;;;;7.35;3.08;;;26.10;59.40;;;;;;5111794;28;20035;-61
2020/12/04 08:35:35;;;;;;;8.50;2.60;;;26.10;63.00;;;;;;5111703;28;20026;-59
2020/12/04 08:38:13;;;;;;;5.13;2.67;;;26.00;64.10;;;;;;5111815;28;20030;-60
2020/12/04 08:40:49;;;;;;;4.38;2.45;;;26.00;65.20;;;;;;5111353;28;20473;-57
2020/12/04 08:43:22;;;;;;;5.95;2.47;;;25.90;63.70;;;;;;5111435;28;20114;-61
2020/12/04 08:45:55;;;;;;;5.28;2.63;;;25.90;61.40;;;;;;5112011;28;20031;-59
2020/12/04 08:48:32;;;;;;;5.90;2.47;;;25.90;63.70;;;;;;5115722;28;20019;-61
2020/12/04 08:51:05;;;;;;;7.95;3.25;;;25.80;62.10;;;;;;5115463;28;20478;-61
2020/12/04 08:53:34;;;;;;;8.27;2.47;;;25.80;65.40;;;;;;5097804;28;20027;-62
2020/12/04 08:56:02;;;;;;;5.25;3.08;;;25.80;63.90;;;;;;5115535;28;20016;-61
2020/12/04 08:58:30;;;;;;;6.20;2.88;;;25.70;63.50;;;;;;5115289;28;20496;-61
2020/12/04 09:00:59;;;;;;;7.13;3.70;;;25.70;63.90;;;;;;5115093;28;20042;-61
2020/12/04 09:03:27;;;;;;;8.20;3.83;;;25.70;63.10;;;;;;5115458;28;20062;-65
2020/12/04 09:05:55;;;;;;;5.18;2.72;;;25.70;62.20;;;;;;5114944;28;20034;-56
2020/12/04 09:08:23;;;;;;;5.70;2.50;;;25.70;64.40;;;;;;5115556;28;20130;-60
2020/12/04 09:10:51;;;;;;;5.85;2.72;;;25.70;65.20;;;;;;5114871;28;20034;-62
2020/12/04 09:13:21;;;;;;;4.57;2.58;;;25.60;62.60;;;;;;5114808;28;20029;-62
2020/12/04 09:15:48;;;;;;;5.38;2.50;;;25.60;65.50;;;;;;5114513;28;20019;-61
2020/12/04 09:18:16;;;;;;;5.97;2.83;;;25.60;64.90;;;;;;5114449;28;20055;-61
2020/12/04 09:20:43;;;;;;;7.00;2.95;;;25.60;63.20;;;;;;5114618;28;20500;-60
2020/12/04 09:23:11;;;;;;;5.18;2.78;;;25.50;64.60;;;;;;5114994;28;20073;-60
2020/12/04 09:25:38;;;;;;;5.60;2.58;;;25.50;63.40;;;;;;5115133;28;20135;-59
2020/12/04 09:28:06;;;;;;;5.55;2.67;;;25.50;62.80;;;;;;5114939;28;20020;-57
2020/12/04 09:30:33;;;;;;;7.70;3.25;;;25.50;63.50;;;;;;5114942;28;20022;-60
2020/12/04 09:33:00;;;;;;;6.93;2.65;;;25.40;64.30;;;;;;5114808;28;20091;-60
2020/12/04 09:35:29;;;;;;;6.22;2.63;;;25.40;63.40;;;;;;5114328;28;20392;-63
2020/12/04 09:37:56;;;;;;;6.80;2.75;;;25.40;65.40;;;;;;5114866;28;20031;-61
2020/12/04 09:40:24;;;;;;;6.20;2.75;;;25.40;65.40;;;;;;5114997;28;20416;-63
2020/12/04 09:42:51;;;;;;;5.25;2.83;;;25.30;64.10;;;;;;5114471;28;20110;-61
2020/12/04 09:45:18;;;;;;;6.18;2.50;;;25.30;66.30;;;;;;5114351;28;20034;-59
2020/12/04 09:47:46;;;;;;;6.03;2.60;;;25.30;66.80;;;;;;5096710;28;20027;-58
2020/12/04 09:50:15;;;;;;;7.18;2.83;;;25.30;66.60;;;;;;5114725;28;20047;-59
2020/12/04 09:52:43;;;;;;;5.43;2.72;;;25.30;66.30;;;;;;5114466;28;20531;-62
2020/12/04 09:55:11;;;;;;;5.10;2.38;;;25.30;67.60;;;;;;5114375;28;20084;-61
2020/12/04 09:57:38;;;;;;;4.80;2.60;;;25.30;67.10;;;;;;5113215;28;20046;-61
2020/12/04 10:00:07;;;;;;;5.88;2.72;;;25.20;67.30;;;;;;5095832;28;20111;-58
2020/12/04 10:02:35;;;;;;;7.03;2.80;;;25.20;67.50;;;;;;5114535;28;20047;-58
2020/12/04 10:05:03;;;;;;;6.97;2.85;;;25.20;68.30;;;;;;5114027;28;20027;-61
2020/12/04 10:07:30;;;;;;;6.13;2.53;;;25.20;67.50;;;;;;5114406;28;20019;-58
2020/12/04 10:09:57;;;;;;;5.65;2.70;;;25.20;68.00;;;;;;5113790;28;20031;-58
2020/12/04 10:12:25;;;;;;;7.68;3.15;;;25.10;67.80;;;;;;5114284;28;20481;-61
2020/12/04 10:14:52;;;;;;;4.68;2.97;;;25.10;68.00;;;;;;5113832;28;20028;-62
2020/12/04 10:17:20;;;;;;;4.85;2.65;;;25.10;68.30;;;;;;5109228;28;20043;-59
2020/12/04 10:19:47;;;;;;;6.32;2.67;;;25.10;68.60;;;;;;5112364;28;20024;-57
2020/12/04 10:22:15;;;;;;;5.60;2.95;;;25.00;68.80;;;;;;5114201;28;20035;-51
2020/12/04 10:24:42;;;;;;;5.63;2.92;;;25.00;68.80;;;;;;5114345;28;20090;-57
2020/12/04 10:27:10;;;;;;;4.25;2.33;;;25.00;69.00;;;;;;5114085;28;20027;-61
2020/12/04 10:29:38;;;;;;;4.05;2.33;;;25.00;69.30;;;;;;5114112;28;20541;-54
2020/12/04 10:32:05;;;;;;;4.93;2.42;;;25.00;69.40;;;;;;5114084;28;20062;-61
2020/12/04 10:34:32;;;;;;;4.80;2.95;;;25.00;69.50;;;;;;5113927;28;20024;-59
2020/12/04 10:37:00;;;;;;;4.93;2.75;;;24.90;69.80;;;;;;5113139;28;20322;-58
2020/12/04 10:39:30;;;;;;;6.90;2.92;;;24.90;69.90;;;;;;5113401;28;20019;-60
2020/12/04 10:42:00;;;;;;;3.67;2.22;;;24.90;70.10;;;;;;5113211;28;20113;-55
2020/12/04 10:44:28;;;;;;;4.78;2.40;;;24.90;70.10;;;;;;5113476;28;20054;-59
2020/12/04 10:46:55;;;;;;;4.72;2.65;;;24.90;70.20;;;;;;5113253;28;20034;-58
2020/12/04 10:49:22;;;;;;;3.95;2.53;;;24.80;70.00;;;;;;5113206;28;20094;-61
2020/12/04 10:51:59;;;;;;;5.05;2.55;;;24.90;70.10;;;;;;5113047;28;20507;-61
2020/12/04 10:54:26;;;;;;;4.30;2.33;;;24.80;70.10;;;;;;5113298;28;20065;-59
2020/12/04 10:56:57;;;;;;;5.90;2.60;;;24.80;70.00;;;;;;5112794;28;20611;-60
2020/12/04 10:59:24;;;;;;;4.70;2.40;;;24.80;70.00;;;;;;5112131;28;20132;-62
2020/12/04 11:02:07;;;;;;;5.35;2.90;;;24.80;70.00;;;;;;5113145;28;20031;-59
2020/12/04 11:07:20;;;;;;;4.80;2.67;;;24.70;69.70;;;;;;5114943;28;20097;-60
2020/12/04 11:09:47;;;;;;;5.55;2.92;;;24.70;70.00;;;;;;5113525;28;20378;-59
2020/12/04 11:12:15;;;;;;;6.07;2.95;;;24.70;70.20;;;;;;5113422;28;20023;-53
2020/12/04 11:14:43;;;;;;;7.72;3.65;;;24.70;70.20;;;;;;5113558;28;20031;-58
2020/12/04 11:17:11;;;;;;;7.40;3.42;;;24.60;70.40;;;;;;5113240;28;20070;-61
2020/12/04 11:19:38;;;;;;;4.35;2.33;;;24.60;70.20;;;;;;5113005;28;20092;-56
2020/12/04 11:22:06;;;;;;;6.70;2.70;;;24.60;70.20;;;;;;5112573;28;20032;-58
2020/12/04 11:24:33;;;;;;;8.48;3.28;;;24.50;70.30;;;;;;5112777;28;20124;-55
2020/12/04 11:27:00;;;;;;;4.78;2.67;;;24.50;70.40;;;;;;5112393;28;20500;-59
2020/12/04 11:29:28;;;;;;;6.35;2.78;;;24.50;70.50;;;;;;5094551;28;20024;-55
2020/12/04 11:31:55;;;;;;;6.20;2.75;;;24.50;70.60;;;;;;5112833;28;20022;-56
2020/12/04 11:34:22;;;;;;;6.00;2.80;;;24.40;70.70;;;;;;5094385;28;20121;-53
2020/12/04 11:36:50;;;;;;;6.07;2.95;;;24.50;70.50;;;;;;5112602;28;20103;-59
2020/12/04 11:39:17;;;;;;;4.90;2.55;;;24.40;70.80;;;;;;5112284;28;20024;-55
2020/12/04 11:41:47;;;;;;;6.68;2.90;;;24.40;71.00;;;;;;5112314;28;20038;-54
2020/12/04 11:44:15;;;;;;;6.03;3.20;;;24.40;70.80;;;;;;5112331;28;20103;-59
2020/12/04 11:46:42;;;;;;;4.47;2.47;;;24.40;71.10;;;;;;5112529;28;20023;-56
2020/12/04 11:49:09;;;;;;;7.53;3.42;;;24.30;71.00;;;;;;5112354;28;20024;-59
2020/12/04 11:51:37;;;;;;;6.93;3.28;;;24.40;71.00;;;;;;5112314;28;20488;-61
2020/12/04 11:54:04;;;;;;;7.97;3.38;;;24.30;70.90;;;;;;5104936;28;20027;-58
2020/12/04 11:56:32;;;;;;;6.15;3.22;;;24.30;71.10;;;;;;5108603;28;20358;-59
2020/12/04 11:58:59;;;;;;;5.90;3.38;;;24.30;70.90;;;;;;5108079;28;20023;-60
2020/12/04 12:01:26;;;;;;;6.45;2.97;;;24.30;71.30;;;;;;5105346;28;20034;-63
2020/12/04 12:03:54;;;;;;;7.18;2.90;;;24.30;71.20;;;;;;5108729;28;20027;-52
2020/12/04 12:06:21;;;;;;;5.25;2.60;;;24.20;71.20;;;;;;5106883;28;20110;-59
2020/12/04 12:08:48;;;;;;;6.22;2.85;;;24.20;71.30;;;;;;5105791;28;20028;-59
2020/12/04 12:11:16;;;;;;;7.38;2.90;;;24.20;71.10;;;;;;5103275;28;20126;-62
2020/12/04 12:13:43;;;;;;;5.82;2.72;;;24.20;70.90;;;;;;5108309;28;20103;-61
2020/12/04 12:16:10;;;;;;;7.97;3.13;;;24.20;71.50;;;;;;5106183;28;20118;-64
2020/12/04 12:18:38;;;;;;;4.47;2.45;;;24.10;71.20;;;;;;5105626;28;20391;-63
2020/12/04 12:21:05;;;;;;;7.55;3.05;;;24.10;71.40;;;;;;5106251;28;20051;-62
2020/12/04 12:23:35;;;;;;;7.80;3.08;;;24.10;71.40;;;;;;5107124;28;20103;-63
2020/12/04 12:26:04;;;;;;;9.35;3.33;;;24.10;71.70;;;;;;5109861;28;20481;-58
2020/12/04 12:28:31;;;;;;;7.70;3.38;;;24.10;71.50;;;;;;5109059;28;20082;-64
2020/12/04 12:30:59;;;;;;;6.65;3.20;;;24.10;71.80;;;;;;5109909;28;20027;-57
2020/12/04 12:33:27;;;;;;;8.00;3.40;;;24.10;71.80;;;;;;5115180;28;20035;-57
2020/12/04 12:35:55;;;;;;;8.65;3.50;;;24.10;72.00;;;;;;5096038;28;20023;-57
2020/12/04 12:38:22;;;;;;;6.70;2.97;;;24.10;72.00;;;;;;5115460;28;20024;-60
2020/12/04 12:40:49;;;;;;;10.38;3.40;;;24.10;72.00;;;;;;5115647;28;20385;-60
2020/12/04 12:43:17;;;;;;;5.70;2.72;;;24.10;71.80;;;;;;5115656;28;20110;-60
2020/12/04 12:45:44;;;;;;;8.70;2.90;;;24.10;72.00;;;;;;5115998;28;20019;-61
2020/12/04 12:48:12;;;;;;;8.20;2.90;;;24.10;72.00;;;;;;5115982;28;20031;-60
2020/12/04 12:50:39;;;;;;;6.10;3.00;;;24.10;71.90;;;;;;5115786;28;20027;-62
2020/12/04 12:53:07;;;;;;;6.50;2.78;;;24.00;71.80;;;;;;5115419;28;20023;-60
2020/12/04 12:55:34;;;;;;;8.60;3.33;;;24.00;72.00;;;;;;5115476;28;20036;-63
2020/12/04 12:58:01;;;;;;;11.27;4.05;;;24.00;72.10;;;;;;5115708;28;20016;-56